createdAt,value
2023-12-30T00:02:26.860Z,100743.78
2023-12-30T00:04:54.043Z,100750.31
2023-12-30T00:07:21.209Z,100758.34
2023-12-30T00:09:48.367Z,100766.19
2023-12-30T00:12:15.812Z,100761.88
2023-12-30T00:14:43.042Z,100763.72
2023-12-30T00:17:10.271Z,100762.91
2023-12-30T00:19:37.823Z,100766.50
2023-12-30T00:22:05.121Z,100759.41
2023-12-30T00:24:32.916Z,100775.56
2023-12-30T00:26:59.992Z,100774.66
2023-12-30T00:29:28.218Z,100770.28
2023-12-30T00:31:55.381Z,100777.34
2023-12-30T00:34:22.664Z,100770.22
2023-12-30T00:36:49.867Z,100774.91
2023-12-30T00:39:17.374Z,100784.91
2023-12-30T00:41:44.507Z,100777.13
2023-12-30T00:44:12.069Z,100785.00
2023-12-30T00:46:39.469Z,100775.50
2023-12-30T00:49:09.857Z,100780.56
2023-12-30T00:51:37.033Z,100782.44
2023-12-30T00:54:04.525Z,100784.34
2023-12-30T00:56:31.652Z,100792.13
2023-12-30T00:58:59.206Z,100787.41
2023-12-30T01:01:26.401Z,100796.16
2023-12-30T01:03:54.071Z,100798.41
2023-12-30T01:06:21.208Z,100809.72
2023-12-30T01:08:48.304Z,100815.13
2023-12-30T01:11:15.731Z,100811.63
2023-12-30T01:13:42.901Z,100823.69
2023-12-30T01:16:10.056Z,100815.19
2023-12-30T01:18:37.293Z,100813.44
2023-12-30T01:21:04.974Z,100822.72
2023-12-30T01:23:32.402Z,100817.44
2023-12-30T01:25:59.820Z,100816.78
2023-12-30T01:28:27.079Z,100815.44
2023-12-30T01:30:54.792Z,100813.44
2023-12-30T01:33:22.051Z,100825.31
2023-12-30T01:35:49.183Z,100821.91
2023-12-30T01:38:16.292Z,100822.66
2023-12-30T01:40:43.631Z,100823.22
2023-12-30T01:43:31.293Z,100827.59
2023-12-30T01:46:10.578Z,100832.78
2023-12-30T01:48:38.674Z,100840.47
2023-12-30T01:51:23.089Z,100844.44
2023-12-30T01:53:53.256Z,100841.00
2023-12-30T01:56:21.126Z,100847.06
2023-12-30T01:58:51.066Z,100853.19
2023-12-30T02:01:19.832Z,100860.75
2023-12-30T02:03:47.737Z,100854.84
2023-12-30T02:06:14.889Z,100851.44
2023-12-30T02:08:42.047Z,100861.25
2023-12-30T02:11:09.224Z,100859.47
2023-12-30T02:13:36.478Z,100852.91
2023-12-30T02:16:03.701Z,100858.91
2023-12-30T02:18:30.838Z,100852.19
2023-12-30T02:20:58.465Z,100863.19
2023-12-30T02:23:25.593Z,100855.97
2023-12-30T02:25:52.716Z,100870.50
2023-12-30T02:28:19.998Z,100869.34
2023-12-30T02:30:47.182Z,100875.38
2023-12-30T02:33:14.466Z,100876.53
2023-12-30T02:35:45.054Z,100885.94
2023-12-30T02:38:12.365Z,100890.34
2023-12-30T02:40:40.221Z,100890.19
2023-12-30T02:43:07.414Z,100886.66
2023-12-30T02:45:34.508Z,100889.59
2023-12-30T02:48:01.727Z,100892.47
2023-12-30T02:50:29.215Z,100900.41
2023-12-30T02:52:56.540Z,100902.09
2023-12-30T02:55:23.882Z,100905.88
2023-12-30T02:57:51.102Z,100896.19
2023-12-30T03:00:19.153Z,100905.09
2023-12-30T03:02:47.249Z,100900.81
2023-12-30T03:05:14.872Z,100898.97
2023-12-30T03:07:42.224Z,100893.63
2023-12-30T03:10:10.151Z,100900.81
2023-12-30T03:12:37.389Z,100898.19
2023-12-30T03:15:04.767Z,100902.31
2023-12-30T03:17:31.946Z,100902.22
2023-12-30T03:19:59.536Z,100915.09
2023-12-30T03:22:27.554Z,100915.75
2023-12-30T03:24:55.247Z,100908.75
2023-12-30T03:27:22.547Z,100924.09
2023-12-30T03:29:49.678Z,100913.38
2023-12-30T03:32:16.848Z,100920.28
2023-12-30T03:34:44.033Z,100915.22
2023-12-30T03:37:11.292Z,100909.94
2023-12-30T03:39:38.453Z,100923.59
2023-12-30T03:42:05.734Z,100922.69
2023-12-30T03:44:33.779Z,100926.09
2023-12-30T03:47:00.953Z,100928.41
2023-12-30T03:49:28.297Z,100925.03
2023-12-30T03:51:55.510Z,100926.78
2023-12-30T03:54:22.656Z,100913.75
2023-12-30T03:56:49.801Z,100915.34
2023-12-30T03:59:17.034Z,100914.44
2023-12-30T04:01:45.014Z,100917.97
2023-12-30T04:04:12.396Z,100912.66
2023-12-30T04:06:39.551Z,100910.81
2023-12-30T04:09:06.664Z,100911.56
2023-12-30T04:11:33.885Z,100913.88
2023-12-30T04:14:01.149Z,100917.97
2023-12-30T04:16:28.266Z,100917.16
2023-12-30T04:18:55.714Z,100919.72
2023-12-30T04:21:22.955Z,100917.16
2023-12-30T04:23:50.086Z,100923.16
2023-12-30T04:26:17.235Z,100910.13
2023-12-30T04:28:46.335Z,100918.66
2023-12-30T04:31:13.671Z,100919.66
2023-12-30T04:33:40.838Z,100918.47
2023-12-30T04:36:08.442Z,100922.06
2023-12-30T04:38:35.696Z,100925.78
2023-12-30T04:41:02.837Z,100925.69
2023-12-30T04:43:29.998Z,100930.94
2023-12-30T04:45:57.251Z,100937.81
2023-12-30T04:48:24.707Z,100934.44
2023-12-30T04:50:51.819Z,100942.97
2023-12-30T04:53:18.968Z,100936.06
2023-12-30T04:55:46.062Z,100934.31
2023-12-30T04:58:13.789Z,100937.00
2023-12-30T05:00:40.948Z,100937.81
2023-12-30T05:03:08.290Z,100934.47
2023-12-30T05:05:35.735Z,100938.72
2023-12-30T05:08:05.485Z,100938.94
2023-12-30T05:10:34.536Z,100931.06
2023-12-30T05:13:03.028Z,100936.19
2023-12-30T05:15:30.355Z,100934.19
2023-12-30T05:17:59.931Z,100936.88
2023-12-30T05:20:27.461Z,100931.44
2023-12-30T05:22:54.593Z,100949.69
2023-12-30T05:25:21.835Z,100952.28
2023-12-30T05:27:48.960Z,100968.81
2023-12-30T05:30:16.450Z,100973.41
2023-12-30T05:32:43.754Z,100969.25
2023-12-30T05:35:10.972Z,100971.22
2023-12-30T05:37:38.227Z,100970.81
2023-12-30T05:40:09.635Z,100976.88
2023-12-30T05:42:37.094Z,100984.81
2023-12-30T05:45:04.840Z,100983.38
2023-12-30T05:47:32.071Z,100983.91
2023-12-30T05:49:59.264Z,100986.66
2023-12-30T05:52:26.444Z,100983.66
2023-12-30T05:54:53.653Z,100991.44
2023-12-30T05:57:20.889Z,100985.56
2023-12-30T05:59:48.503Z,100995.78
2023-12-30T06:02:15.626Z,100992.00
2023-12-30T06:04:43.285Z,100991.03
2023-12-30T06:07:10.795Z,100995.22
2023-12-30T06:09:38.016Z,101004.66
2023-12-30T06:12:05.829Z,101001.94
2023-12-30T06:14:32.932Z,101000.09
2023-12-30T06:17:00.050Z,101001.84
2023-12-30T06:19:27.331Z,100993.75
2023-12-30T06:21:54.963Z,101005.19
2023-12-30T06:24:23.695Z,101001.69
2023-12-30T06:26:52.981Z,101004.19
2023-12-30T06:29:22.861Z,101000.63
2023-12-30T06:31:51.049Z,101005.06
2023-12-30T06:34:18.301Z,101009.25
2023-12-30T06:36:46.839Z,101017.06
2023-12-30T06:39:18.571Z,101006.78
2023-12-30T06:41:45.772Z,101015.53
2023-12-30T06:44:12.950Z,101024.00
2023-12-30T06:46:41.334Z,101014.75
2023-12-30T06:49:08.651Z,101022.47
2023-12-30T06:51:36.337Z,101027.75
2023-12-30T06:54:03.803Z,101020.94
2023-12-30T06:56:31.044Z,101019.19
2023-12-30T06:58:58.325Z,101016.38
2023-12-30T07:01:26.626Z,101013.63
2023-12-30T07:03:54.192Z,101021.66
2023-12-30T07:06:21.723Z,101035.47
2023-12-30T07:08:48.896Z,101025.28
2023-12-30T07:11:16.231Z,101025.19
2023-12-30T07:13:43.487Z,101025.03
2023-12-30T07:16:10.668Z,101027.06
2023-12-30T07:18:37.831Z,101022.91
2023-12-30T07:21:05.031Z,101025.41
2023-12-30T07:23:32.111Z,101027.84
2023-12-30T07:25:59.560Z,101030.50
2023-12-30T07:28:26.771Z,101029.66
2023-12-30T07:30:54.252Z,101033.78
2023-12-30T07:33:21.604Z,101046.03
2023-12-30T07:35:49.035Z,101047.72
2023-12-30T07:38:16.280Z,101047.66
2023-12-30T07:40:43.398Z,101046.59
2023-12-30T07:43:11.130Z,101063.16
2023-12-30T07:45:38.279Z,101059.09
2023-12-30T07:48:06.104Z,101064.91
2023-12-30T07:50:33.307Z,101061.50
2023-12-30T07:53:00.675Z,101061.09
2023-12-30T07:55:28.370Z,101067.06
2023-12-30T07:57:55.479Z,101077.25
2023-12-30T08:00:22.721Z,101062.75
2023-12-30T08:02:50.016Z,101074.09
2023-12-30T08:05:19.156Z,101066.41
2023-12-30T08:07:46.446Z,101070.53
2023-12-30T08:10:14.297Z,101073.19
2023-12-30T08:12:41.470Z,101072.28
2023-12-30T08:15:10.476Z,101090.28
2023-12-30T08:17:38.170Z,101082.56
2023-12-30T08:20:06.812Z,101088.97
2023-12-30T08:22:34.006Z,101087.34
2023-12-30T08:25:01.219Z,101094.25
2023-12-30T08:27:28.993Z,101090.91
2023-12-30T08:29:56.194Z,101101.59
2023-12-30T08:32:23.341Z,101096.75
2023-12-30T08:34:50.720Z,101105.56
2023-12-30T08:37:18.747Z,101105.47
2023-12-30T08:39:47.305Z,101110.13
2023-12-30T08:42:14.481Z,101105.34
2023-12-30T08:44:44.971Z,101110.84
2023-12-30T08:47:13.243Z,101116.75
2023-12-30T08:49:40.754Z,101120.50
2023-12-30T08:52:08.114Z,101122.19
2023-12-30T08:54:40.243Z,101134.38
2023-12-30T08:57:07.563Z,101136.09
2023-12-30T08:59:35.014Z,101140.34
2023-12-30T09:02:02.742Z,101146.25
2023-12-30T09:04:30.195Z,101140.69
2023-12-30T09:06:58.148Z,101142.75
2023-12-30T09:09:25.288Z,101132.69
2023-12-30T09:11:52.613Z,101127.88
2023-12-30T09:14:20.873Z,101126.03
2023-12-30T09:16:48.384Z,101123.50
2023-12-30T09:19:15.991Z,101132.25
2023-12-30T09:21:43.174Z,101122.56
2023-12-30T09:24:10.412Z,101116.03
2023-12-30T09:26:37.610Z,101124.94
2023-12-30T09:29:07.238Z,101126.41
2023-12-30T09:31:34.623Z,101128.78
2023-12-30T09:34:02.124Z,101136.16
2023-12-30T09:36:29.911Z,101139.72
2023-12-30T09:38:57.043Z,101140.00
2023-12-30T09:41:25.962Z,101139.50
2023-12-30T09:43:55.672Z,101127.69
2023-12-30T09:46:24.458Z,101144.78
2023-12-30T09:48:54.074Z,101143.28
2023-12-30T09:51:22.904Z,101146.00
2023-12-30T09:53:50.032Z,101147.41
2023-12-30T09:56:19.314Z,101145.78
2023-12-30T09:58:47.759Z,101141.41
2023-12-30T10:01:15.258Z,101134.63
2023-12-30T10:03:42.794Z,101131.59
2023-12-30T10:06:13.548Z,101130.72
2023-12-30T10:08:41.530Z,101132.75
2023-12-30T10:11:09.810Z,101131.31
2023-12-30T10:13:38.466Z,101139.06
2023-12-30T10:16:07.255Z,101138.88
2023-12-30T10:18:35.017Z,101142.66
2023-12-30T10:21:05.056Z,101153.03
2023-12-30T10:23:34.840Z,101158.91
2023-12-30T10:26:04.053Z,101154.84
2023-12-30T10:28:31.490Z,101145.72
2023-12-30T10:31:06.414Z,101149.50
2023-12-30T10:33:35.086Z,101144.47
2023-12-30T10:36:02.776Z,101142.63
2023-12-30T10:38:29.932Z,101146.22
2023-12-30T10:40:57.333Z,101133.81
2023-12-30T10:43:25.707Z,101148.84
2023-12-30T10:46:00.365Z,101151.88
2023-12-30T10:48:32.704Z,101144.03
2023-12-30T10:51:00.943Z,101144.97
2023-12-30T10:53:45.443Z,101133.69
2023-12-30T10:56:21.274Z,101128.00
2023-12-30T10:58:52.946Z,101118.09
2023-12-30T11:01:21.829Z,101120.66
2023-12-30T11:03:48.955Z,101125.13
2023-12-30T11:06:30.136Z,101121.50
2023-12-30T11:09:02.025Z,101113.03
2023-12-30T11:11:29.744Z,101113.03
2023-12-30T11:13:59.451Z,101104.53
2023-12-30T11:16:27.195Z,101096.66
2023-12-30T11:18:57.413Z,101112.34
2023-12-30T11:21:36.966Z,101114.00
2023-12-30T11:24:08.879Z,101113.50
2023-12-30T11:26:38.966Z,101123.53
2023-12-30T11:29:12.158Z,101111.63
2023-12-30T11:31:42.457Z,101104.09
2023-12-30T11:34:11.807Z,101105.09
2023-12-30T11:36:40.582Z,101096.22
2023-12-30T11:39:11.861Z,101106.47
2023-12-30T11:41:39.060Z,101103.44
2023-12-30T11:44:07.211Z,101103.69
2023-12-30T11:46:35.203Z,101082.16
2023-12-30T11:49:02.701Z,101089.38
2023-12-30T11:51:31.134Z,101093.59
2023-12-30T11:54:01.786Z,101086.63
2023-12-30T11:56:30.648Z,101087.63
2023-12-30T11:58:58.863Z,101074.81
2023-12-30T12:01:26.175Z,101073.13
2023-12-30T12:03:53.982Z,101073.31
2023-12-30T12:06:21.402Z,101069.97
2023-12-30T12:08:48.611Z,101066.31
2023-12-30T12:11:15.828Z,101056.50
2023-12-30T12:13:43.139Z,101076.78
2023-12-30T12:16:11.207Z,101062.22
2023-12-30T12:18:38.556Z,101052.94
2023-12-30T12:21:12.884Z,101063.22
2023-12-30T12:23:42.231Z,101070.28
2023-12-30T12:26:09.571Z,101073.25
2023-12-30T12:28:36.790Z,101071.59
2023-12-30T12:31:07.267Z,101034.13
2023-12-30T12:33:36.674Z,101069.72
2023-12-30T12:36:06.292Z,101061.97
2023-12-30T12:38:33.552Z,101040.75
2023-12-30T12:41:00.660Z,101061.09
2023-12-30T12:43:28.024Z,101052.53
2023-12-30T12:45:55.204Z,101033.28
2023-12-30T12:48:22.459Z,101049.31
2023-12-30T12:50:49.692Z,101038.94
2023-12-30T12:53:18.093Z,101041.66
2023-12-30T12:55:45.289Z,101036.50
2023-12-30T12:58:12.414Z,101027.03
2023-12-30T13:00:39.715Z,101029.59
2023-12-30T13:03:07.686Z,101019.25
2023-12-30T13:05:35.262Z,101010.44
2023-12-30T13:08:02.644Z,101006.34
2023-12-30T13:10:32.913Z,100996.81
2023-12-30T13:13:01.123Z,101002.16
2023-12-30T13:15:29.105Z,100994.50
2023-12-30T13:17:56.325Z,100990.22
2023-12-30T13:20:23.538Z,100987.31
2023-12-30T13:22:56.454Z,100989.13
2023-12-30T13:25:23.795Z,100987.53
2023-12-30T13:27:52.370Z,100982.50
2023-12-30T13:30:23.982Z,100970.66
2023-12-30T13:32:58.521Z,100953.34
2023-12-30T13:35:38.125Z,100966.00
2023-12-30T13:38:16.896Z,100969.78
2023-12-30T13:40:44.661Z,100957.72
2023-12-30T13:43:12.040Z,100951.94
2023-12-30T13:45:48.356Z,100949.59
2023-12-30T13:48:21.568Z,100944.38
2023-12-30T13:50:56.240Z,100945.34
2023-12-30T13:53:25.296Z,100937.59
2023-12-30T13:55:59.369Z,100931.50
2023-12-30T13:58:26.662Z,100939.25
2023-12-30T14:00:56.477Z,100936.78
2023-12-30T14:03:25.029Z,100938.47
2023-12-30T14:05:52.326Z,100923.63
2023-12-30T14:08:19.441Z,100930.66
2023-12-30T14:10:50.480Z,100926.31
2023-12-30T14:13:20.802Z,100928.75
2023-12-30T14:15:48.942Z,100928.91
2023-12-30T14:18:19.446Z,100920.38
2023-12-30T14:20:48.127Z,100916.84
2023-12-30T14:23:15.530Z,100913.34
2023-12-30T14:25:42.770Z,100919.97
2023-12-30T14:28:11.091Z,100917.41
2023-12-30T14:30:39.864Z,100916.53
2023-12-30T14:33:07.717Z,100910.47
2023-12-30T14:35:35.299Z,100907.03
2023-12-30T14:38:03.790Z,100916.53
2023-12-30T14:40:30.896Z,100913.72
2023-12-30T14:42:58.153Z,100905.19
2023-12-30T14:45:25.288Z,100908.56
2023-12-30T14:47:52.404Z,100919.84
2023-12-30T14:50:19.621Z,100911.97
2023-12-30T14:52:46.867Z,100919.72
2023-12-30T14:55:14.166Z,100912.13
2023-12-30T14:57:42.047Z,100913.16
2023-12-30T15:00:16.910Z,100908.78
2023-12-30T15:02:45.623Z,100911.34
2023-12-30T15:05:15.636Z,100899.97
2023-12-30T15:07:48.118Z,100902.56
2023-12-30T15:10:16.507Z,100905.06
2023-12-30T15:12:47.701Z,100899.66
2023-12-30T15:15:15.700Z,100902.34
2023-12-30T15:17:43.267Z,100902.47
2023-12-30T15:20:10.739Z,100896.38
2023-12-30T15:22:39.159Z,100892.03
2023-12-30T15:25:07.074Z,100894.59
2023-12-30T15:27:34.339Z,100880.75
2023-12-30T15:30:01.974Z,100878.00
2023-12-30T15:32:30.409Z,100860.56
2023-12-30T15:34:59.336Z,100870.94
2023-12-30T15:37:27.091Z,100871.94
2023-12-30T15:39:54.341Z,100872.59
2023-12-30T15:42:21.726Z,100878.84
2023-12-30T15:44:48.746Z,100873.63
2023-12-30T15:47:16.566Z,100875.47
2023-12-30T15:49:44.045Z,100873.81
2023-12-30T15:52:11.704Z,100862.53
2023-12-30T15:54:39.661Z,100861.63
2023-12-30T15:57:06.877Z,100846.94
2023-12-30T15:59:33.987Z,100861.03
2023-12-30T16:02:01.481Z,100856.06
2023-12-30T16:04:29.259Z,100858.53
2023-12-30T16:06:56.800Z,100853.25
2023-12-30T16:09:23.925Z,100860.28
2023-12-30T16:11:51.193Z,100853.47
2023-12-30T16:14:18.327Z,100847.44
2023-12-30T16:16:46.664Z,100843.13
2023-12-30T16:19:17.318Z,100850.84
2023-12-30T16:21:46.470Z,100846.56
2023-12-30T16:24:14.674Z,100846.56
2023-12-30T16:26:42.484Z,100835.25
2023-12-30T16:29:10.013Z,100836.28
2023-12-30T16:31:37.818Z,100832.88
2023-12-30T16:34:05.369Z,100830.19
2023-12-30T16:36:34.275Z,100834.53
2023-12-30T16:39:02.596Z,100835.34
2023-12-30T16:41:29.774Z,100838.75
2023-12-30T16:43:56.882Z,100843.97
2023-12-30T16:46:25.254Z,100842.31
2023-12-30T16:48:52.885Z,100844.91
2023-12-30T16:51:20.167Z,100845.72
2023-12-30T16:53:47.862Z,100842.53
2023-12-30T16:56:17.013Z,100842.63
2023-12-30T16:58:44.230Z,100839.06
2023-12-30T17:01:11.470Z,100836.38
2023-12-30T17:03:38.596Z,100829.41
2023-12-30T17:06:06.315Z,100829.56
2023-12-30T17:08:33.464Z,100834.84
2023-12-30T17:11:00.684Z,100829.69
2023-12-30T17:13:35.140Z,100828.75
2023-12-30T17:16:07.658Z,100824.53
2023-12-30T17:18:35.234Z,100823.69
2023-12-30T17:21:02.968Z,100825.47
2023-12-30T17:23:30.105Z,100828.94
2023-12-30T17:25:57.188Z,100830.59
2023-12-30T17:28:24.382Z,100835.06
2023-12-30T17:30:51.589Z,100832.47
2023-12-30T17:33:18.811Z,100818.41
2023-12-30T17:35:46.093Z,100827.41
2023-12-30T17:38:13.556Z,100818.78
2023-12-30T17:40:40.940Z,100825.72
2023-12-30T17:43:08.065Z,100821.22
2023-12-30T17:45:35.185Z,100826.44
2023-12-30T17:48:02.722Z,100814.47
2023-12-30T17:50:29.881Z,100815.19
2023-12-30T17:52:56.956Z,100798.09
2023-12-30T17:55:24.064Z,100804.22
2023-12-30T17:57:51.228Z,100796.38
2023-12-30T18:00:18.587Z,100798.88
2023-12-30T18:02:45.701Z,100785.03
2023-12-30T18:05:13.154Z,100790.09
2023-12-30T18:07:40.552Z,100777.94
2023-12-30T18:10:07.989Z,100784.72
2023-12-30T18:12:35.171Z,100783.00
2023-12-30T18:15:04.793Z,100770.00
2023-12-30T18:17:32.858Z,100769.94
2023-12-30T18:20:00.342Z,100758.66
2023-12-30T18:22:28.177Z,100757.81
2023-12-30T18:24:55.354Z,100750.97
2023-12-30T18:27:23.672Z,100743.94
2023-12-30T18:29:50.807Z,100744.69
2023-12-30T18:32:18.193Z,100743.00
2023-12-30T18:34:45.344Z,100736.03
2023-12-30T18:37:15.148Z,100739.50
2023-12-30T18:39:42.488Z,100735.88
2023-12-30T18:42:09.541Z,100732.50
2023-12-30T18:44:36.620Z,100719.56
2023-12-30T18:47:04.148Z,100709.88
2023-12-30T18:49:31.272Z,100713.50
2023-12-30T18:51:58.704Z,100712.72
2023-12-30T18:54:25.883Z,100697.25
2023-12-30T18:56:52.999Z,100709.31
2023-12-30T18:59:20.140Z,100705.09
2023-12-30T19:01:48.198Z,100708.50
2023-12-30T19:04:15.550Z,100692.06
2023-12-30T19:06:42.806Z,100686.91
2023-12-30T19:09:10.262Z,100691.22
2023-12-30T19:11:38.207Z,100672.97
2023-12-30T19:14:05.311Z,100689.56
2023-12-30T19:16:32.474Z,100675.75
2023-12-30T19:19:00.061Z,100672.22
2023-12-30T19:21:27.351Z,100672.22
2023-12-30T19:23:55.043Z,100662.78
2023-12-30T19:26:22.109Z,100658.47
2023-12-30T19:28:49.258Z,100663.63
2023-12-30T19:31:16.773Z,100660.16
2023-12-30T19:33:44.256Z,100661.97
2023-12-30T19:36:11.881Z,100656.00
2023-12-30T19:38:39.716Z,100649.78
2023-12-30T19:41:07.170Z,100662.06
2023-12-30T19:43:35.596Z,100646.47
2023-12-30T19:46:07.048Z,100636.13
2023-12-30T19:48:35.801Z,100649.94
2023-12-30T19:51:05.665Z,100649.81
2023-12-30T19:53:33.721Z,100637.78
2023-12-30T19:56:02.866Z,100642.13
2023-12-30T19:58:32.047Z,100642.19
2023-12-30T20:00:59.958Z,100628.38
2023-12-30T20:03:27.285Z,100638.69
2023-12-30T20:05:54.830Z,100632.72
2023-12-30T20:08:22.639Z,100625.88
2023-12-30T20:10:49.912Z,100614.63
2023-12-30T20:13:17.211Z,100627.63
2023-12-30T20:15:44.480Z,100622.47
2023-12-30T20:18:11.702Z,100620.78
2023-12-30T20:20:38.931Z,100614.69
2023-12-30T20:23:06.972Z,100616.34
2023-12-30T20:25:34.359Z,100614.53
2023-12-30T20:28:01.832Z,100607.69
2023-12-30T20:30:29.169Z,100600.78
2023-12-30T20:32:56.303Z,100601.59
2023-12-30T20:35:23.456Z,100592.19
2023-12-30T20:37:50.536Z,100594.75
2023-12-30T20:40:19.258Z,100588.59
2023-12-30T20:42:46.870Z,100591.06
2023-12-30T20:45:18.159Z,100592.91
2023-12-30T20:47:45.369Z,100575.72
2023-12-30T20:50:12.625Z,100565.41
2023-12-30T20:52:39.912Z,100574.00
2023-12-30T20:55:07.691Z,100552.41
2023-12-30T20:57:35.276Z,100551.50
2023-12-30T21:00:02.732Z,100546.41
2023-12-30T21:02:29.923Z,100553.34
2023-12-30T21:04:58.217Z,100547.31
2023-12-30T21:07:25.620Z,100559.34
2023-12-30T21:09:52.994Z,100552.47
2023-12-30T21:12:20.243Z,100542.94
2023-12-30T21:14:48.005Z,100539.66
2023-12-30T21:17:15.192Z,100540.50
2023-12-30T21:19:42.409Z,100523.09
2023-12-30T21:22:09.748Z,100521.66
2023-12-30T21:24:40.189Z,100499.78
2023-12-30T21:27:07.612Z,100509.47
2023-12-30T21:29:38.462Z,100511.41
2023-12-30T21:32:07.546Z,100507.84
2023-12-30T21:34:34.722Z,100509.59
2023-12-30T21:37:02.016Z,100499.28
2023-12-30T21:39:29.556Z,100498.44
2023-12-30T21:41:56.660Z,100497.66
2023-12-30T21:44:23.846Z,100499.53
2023-12-30T21:46:50.956Z,100486.63
2023-12-30T21:49:19.756Z,100483.13
2023-12-30T21:51:47.177Z,100481.44
2023-12-30T21:54:14.949Z,100464.25
2023-12-30T21:56:43.238Z,100470.28
2023-12-30T21:59:10.597Z,100467.81
2023-12-30T22:01:37.836Z,100456.63
2023-12-30T22:04:06.364Z,100452.38
2023-12-30T22:06:33.942Z,100450.69
2023-12-30T22:09:01.217Z,100449.91
2023-12-30T22:11:28.812Z,100434.28
2023-12-30T22:13:56.781Z,100438.72
2023-12-30T22:16:24.205Z,100436.09
2023-12-30T22:18:51.612Z,100429.22
2023-12-30T22:21:19.323Z,100429.22
2023-12-30T22:23:48.141Z,100422.25
2023-12-30T22:26:19.119Z,100427.53
2023-12-30T22:28:46.399Z,100418.88
2023-12-30T22:31:14.111Z,100417.00
2023-12-30T22:33:41.580Z,100410.28
2023-12-30T22:36:09.117Z,100403.31
2023-12-30T22:38:36.701Z,100407.63
2023-12-30T22:41:04.615Z,100417.19
2023-12-30T22:43:31.891Z,100413.72
2023-12-30T22:45:59.483Z,100406.78
2023-12-30T22:48:26.658Z,100408.41
2023-12-30T22:50:53.827Z,100406.53
2023-12-30T22:53:20.995Z,100400.53
2023-12-30T22:55:49.605Z,100401.34
2023-12-30T22:58:17.031Z,100399.75
2023-12-30T23:00:44.365Z,100401.50
2023-12-30T23:03:11.493Z,100399.81
2023-12-30T23:05:38.932Z,100395.44
2023-12-30T23:08:06.767Z,100388.63
2023-12-30T23:10:33.965Z,100387.66
2023-12-30T23:13:01.531Z,100377.19
2023-12-30T23:15:29.745Z,100364.25
2023-12-30T23:17:56.965Z,100360.81
2023-12-30T23:20:24.182Z,100364.25
2023-12-30T23:22:52.568Z,100369.44
2023-12-30T23:25:19.812Z,100351.31
2023-12-30T23:27:50.127Z,100362.44
2023-12-30T23:30:17.330Z,100354.63
2023-12-30T23:32:44.535Z,100346.91
2023-12-30T23:35:11.884Z,100325.41
2023-12-30T23:37:39.076Z,100330.56
2023-12-30T23:40:08.885Z,100320.19
2023-12-30T23:42:36.674Z,100312.44
2023-12-30T23:45:05.086Z,100315.06
2023-12-30T23:47:32.685Z,100302.19
2023-12-30T23:49:59.883Z,100291.78
2023-12-30T23:52:27.370Z,100286.63
2023-12-30T23:54:55.373Z,100285.91
2023-12-30T23:57:22.472Z,100276.41
2023-12-30T23:59:49.608Z,100269.56
